Anne Sibum — C4YC2 — position and weather

sailwx.info

Track history (hours):
 
Tides and Currents Weather Stations Pressure Air Temp Water Temp Dewpoint Dewpoint Depression Visibility Wind Speed Wind Dir Waves Ship Positions

Anne Sibum

Last reported at 2017-Jun-26 12:00 UTC. Time now 2017-Jun-26 12:16 UTC.
Position N 51°53' E 004°25'.

Length 151 m; draft 8.2 m.

Type: Ship (hazmat cat A). MMSI: 209322000.

Date/timePositionNaut miles runAvg speedWind from/ knotsBaromVisibWave heightAir tempDewpointWater temp
2017-Jun-26 12:00N 51°53' E 004°25'0 0.0
2017-Jun-26 11:30N 51°53' E 004°25'0 0.0
2017-Jun-26 11:00N 51°53' E 004°25'0 0.0
2017-Jun-26 10:30N 51°53' E 004°25'0 0.0
2017-Jun-26 10:00N 51°53' E 004°25'0 0.0
2017-Jun-26 09:30N 51°53' E 004°25'0 0.0
2017-Jun-26 09:00N 51°53' E 004°25'0 0.0
2017-Jun-26 08:29N 51°53' E 004°25'0 0.0
2017-Jun-26 07:58N 51°53' E 004°25'0 0.0
2017-Jun-26 07:29N 51°53' E 004°25'0 0.0
2017-Jun-26 07:00N 51°53' E 004°25'0 0.0
2017-Jun-26 06:30N 51°53' E 004°25'0 0.0
2017-Jun-26 06:00N 51°53' E 004°25'0 0.0
2017-Jun-26 05:29N 51°53' E 004°25'0 0.0
2017-Jun-26 05:00N 51°53' E 004°25'0 0.0
2017-Jun-26 04:29N 51°53' E 004°25'0 0.0
2017-Jun-26 03:59N 51°53' E 004°25'0 0.0
2017-Jun-26 03:29N 51°53' E 004°25'0 0.0
2017-Jun-26 03:00N 51°53' E 004°25'0 0.0
2017-Jun-26 02:29N 51°53' E 004°25'0 0.0
2017-Jun-26 02:00N 51°53' E 004°25'0 0.0
2017-Jun-26 01:29N 51°53' E 004°25'0 0.0
2017-Jun-26 00:59N 51°53' E 004°25'0 0.0
2017-Jun-26 00:30N 51°53' E 004°25'0 0.0
2017-Jun-26 00:01N 51°53' E 004°25'0 0.5
2017-Jun-25 23:30N 51°53' E 004°25'0 0.0
2017-Jun-25 23:00N 51°53' E 004°25'0 0.0
2017-Jun-25 22:30N 51°53' E 004°25'0 0.0
2017-Jun-25 21:59N 51°53' E 004°25'0 0.0
2017-Jun-25 21:30N 51°53' E 004°25'0 0.0
2017-Jun-25 20:58N 51°53' E 004°25'0 0.0
2017-Jun-25 20:30N 51°53' E 004°25'0 0.0
2017-Jun-25 20:00N 51°53' E 004°25'0 0.0
2017-Jun-25 19:30N 51°53' E 004°25'0 0.0
2017-Jun-25 19:00N 51°53' E 004°25'0 0.0
2017-Jun-25 18:29N 51°53' E 004°25'0 0.0
2017-Jun-25 18:00N 51°53' E 004°25'0 0.0
2017-Jun-25 17:29N 51°53' E 004°25'0 0.0
2017-Jun-25 17:00N 51°53' E 004°25'0 0.0
2017-Jun-25 16:30N 51°53' E 004°25'0 0.0
2017-Jun-25 16:00N 51°53' E 004°25'0 0.0
2017-Jun-25 15:30N 51°53' E 004°25'0 0.0
2017-Jun-25 15:00N 51°53' E 004°25'0 0.0
2017-Jun-25 14:00N 51°53' E 004°25'0 0.0
2017-Jun-25 13:30N 51°53' E 004°25'0 0.0
2017-Jun-25 13:00N 51°53' E 004°25'1 1.7
2017-Jun-25 12:30N 51°53' E 004°24'4 7.7
2017-Jun-25 12:00N 51°54' E 004°18'510.7
2017-Jun-25 11:30N 51°57' E 004°11'4 7.6
2017-Jun-25 11:00N 51°58' E 004°05'2 4.5
2017-Jun-25 10:30N 51°57' E 004°03'0 0.3
2017-Jun-25 10:00N 51°57' E 004°03'0 0.0
2017-Jun-25 09:30N 51°57' E 004°03'0 0.0
2017-Jun-25 09:00N 51°57' E 004°03'0 0.0
2017-Jun-25 08:30N 51°57' E 004°03'0 0.0
2017-Jun-25 07:59N 51°57' E 004°03'0 0.0
2017-Jun-25 07:30N 51°57' E 004°03'0 0.0
2017-Jun-25 07:00N 51°57' E 004°03'0 0.0
2017-Jun-25 06:30N 51°57' E 004°03'0 0.0
2017-Jun-25 06:00N 51°57' E 004°03'0 0.0
2017-Jun-25 05:30N 51°57' E 004°03'0 0.0
2017-Jun-25 05:00N 51°57' E 004°03'0 0.0
2017-Jun-25 04:30N 51°57' E 004°03'0 0.0
2017-Jun-25 04:00N 51°57' E 004°03'0 0.0
2017-Jun-25 03:29N 51°57' E 004°03'0 0.0
2017-Jun-25 03:00N 51°57' E 004°03'1 1.3
2017-Jun-25 02:30N 51°57' E 004°04'2 4.9
2017-Jun-25 02:00N 51°59' E 004°01'1 2.4
2017-Jun-25 01:30N 51°57' E 004°00'0 0.0
2017-Jun-25 01:00N 51°57' E 004°00'0 0.0
2017-Jun-25 00:30N 51°57' E 004°00'0 0.0
2017-Jun-25 00:00N 51°57' E 004°00'0 0.0
2017-Jun-24 23:30N 51°57' E 004°00'0 0.0
2017-Jun-24 23:00N 51°57' E 004°00'0 0.0
2017-Jun-24 22:30N 51°57' E 004°00'0 0.0
2017-Jun-24 21:59N 51°57' E 004°00'0 0.4
2017-Jun-24 21:30N 51°58' E 004°00'1 2.8
2017-Jun-24 21:00N 51°58' E 004°02'1 1.5
2017-Jun-24 20:30N 51°58' E 004°03'0 0.0
2017-Jun-24 19:58N 51°58' E 004°03'0 0.0
2017-Jun-24 19:27N 51°58' E 004°03'0 0.0
2017-Jun-24 19:00N 51°58' E 004°03'0 0.0
2017-Jun-24 18:30N 51°58' E 004°03'0 0.0
2017-Jun-24 18:00N 51°58' E 004°03'0 0.0
2017-Jun-24 17:30N 51°58' E 004°03'0 0.0
2017-Jun-24 17:00N 51°58' E 004°03'0 0.0
2017-Jun-24 16:30N 51°58' E 004°03'0 0.0
2017-Jun-24 16:00N 51°58' E 004°03'0 0.0
2017-Jun-24 15:30N 51°58' E 004°03'1 1.0
2017-Jun-24 15:00N 51°58' E 004°03'0 0.1
2017-Jun-24 14:00N 51°57' E 004°02'0 0.0
2017-Jun-24 13:30N 51°57' E 004°02'0 0.0
2017-Jun-24 13:00N 51°57' E 004°02'0 0.0
2017-Jun-24 12:30N 51°57' E 004°02'0 0.0
2017-Jun-24 11:59N 51°57' E 004°02'0 0.0
2017-Jun-24 11:30N 51°57' E 004°02'0 0.0
2017-Jun-24 11:00N 51°57' E 004°02'0 0.0
2017-Jun-24 10:30N 51°57' E 004°02'0 0.0
2017-Jun-24 10:00N 51°57' E 004°02'0 0.0
2017-Jun-24 09:30N 51°57' E 004°02'0 0.0
2017-Jun-24 09:00N 51°57' E 004°02'0 0.0
2017-Jun-24 08:30N 51°57' E 004°02'0 0.0
2017-Jun-24 08:00N 51°57' E 004°02'0 0.0
2017-Jun-24 07:30N 51°57' E 004°02'0 0.0
2017-Jun-24 07:00N 51°57' E 004°02'0 0.0
2017-Jun-24 06:30N 51°57' E 004°02'0 0.0
2017-Jun-24 06:00N 51°57' E 004°02'0 0.0
2017-Jun-24 05:30N 51°57' E 004°02'0 0.1
2017-Jun-24 05:00N 51°58' E 004°03'2 3.4
2017-Jun-24 04:31N 51°58' E 004°05'510.4
2017-Jun-24 04:00N 51°60' E 003°57'713.3
2017-Jun-24 03:31N 52°00' E 003°46'713.5
2017-Jun-24 03:00N 51°57' E 003°36'1122.8
2017-Jun-24 02:30N 51°54' E 003°19'3 5.5
2017-Jun-24 01:59N 51°54' E 003°14'814.0
2017-Jun-24 01:26N 51°52' E 003°02'613.9
2017-Jun-24 00:59N 51°50' E 002°52'713.5
2017-Jun-24 00:28N 51°48' E 002°41'614.0
2017-Jun-24 00:00N 51°44' E 002°34'714.2
2017-Jun-23 23:30N 51°38' E 002°27'714.0
2017-Jun-23 23:00N 51°33' E 002°20'815.2
2017-Jun-23 22:31N 51°27' E 002°12'815.4
2017-Jun-23 21:59N 51°20' E 002°07'715.2
2017-Jun-23 21:30N 51°13' E 002°02'916.0
2017-Jun-23 20:58N 51°08' E 001°51'715.3
2017-Jun-23 20:30N 51°03' E 001°42'714.7
2017-Jun-23 20:00N 50°58' E 001°34'714.0
2017-Jun-23 19:30N 50°52' E 001°29'5413.0
2017-Jun-23 15:20N 50°23' E 000°16'413.0
2017-Jun-23 15:00N 50°22' E 000°10'1312.9
2017-Jun-23 14:01N 50°18' W 000°09'612.6
2017-Jun-23 13:30N 50°17' W 000°19'6013.4
2017-Jun-23 09:02N 50°14' W 001°52'216.6
2017-Jun-23 08:57N 50°14' W 001°55'1617.2
2017-Jun-23 08:02N 50°11' W 002°19'317.3
2017-Jun-23 07:51N 50°11' W 002°24'817.3
2017-Jun-23 07:22N 50°10' W 002°37'617.1
2017-Jun-23 07:00N 50°09' W 002°46'817.0
2017-Jun-23 06:31N 50°08' W 002°59'917.3
2017-Jun-23 06:00N 50°06' W 003°13'917.9
2017-Jun-23 05:30N 50°05' W 003°26'917.9
2017-Jun-23 05:00N 50°04' W 003°40'918.0
2017-Jun-23 04:31N 50°02' W 003°54'1117.8
2017-Jun-23 03:54N 50°01' W 004°11'717.4
2017-Jun-23 03:30N 49°60' W 004°21'917.3
2017-Jun-23 03:00N 49°59' W 004°35'815.9
2017-Jun-23 02:30N 49°57' W 004°47'815.0
2017-Jun-23 01:57N 49°56' W 004°59'716.7
2017-Jun-23 01:30N 49°55' W 005°11'816.5
2017-Jun-23 01:00N 49°55' W 005°24'816.3
2017-Jun-23 00:30N 49°55' W 005°36'816.1
2017-Jun-23 00:00N 49°55' W 005°49'1612.6
2017-Jun-22 22:43N 50°10' W 006°01'416.8
2017-Jun-22 22:30N 50°13' W 006°02'1016.3
2017-Jun-22 21:51N 50°23' W 006°07'716.9
2017-Jun-22 21:27N 50°28' W 006°14'916.9
2017-Jun-22 20:55N 50°34' W 006°24'816.9
2017-Jun-22 20:28N 50°40' W 006°33'816.8
2017-Jun-22 20:00N 50°45' W 006°42'816.9
2017-Jun-22 19:30N 50°51' W 006°51'916.9
2017-Jun-22 19:00N 50°57' W 007°00'817.0
2017-Jun-22 18:30N 51°03' W 007°09'917.0
2017-Jun-22 17:59N 51°10' W 007°19'817.1
2017-Jun-22 17:29N 51°16' W 007°29'817.0
2017-Jun-22 17:00N 51°22' W 007°38'816.8
2017-Jun-22 16:30N 51°28' W 007°47'816.8
2017-Jun-22 16:00N 51°34' W 007°57'816.7
2017-Jun-22 15:30N 51°39' W 008°06'816.3
2017-Jun-22 15:00N 51°46' W 008°15'510.8
2017-Jun-22 14:31N 51°51' W 008°16'6 6.3
2017-Jun-22 13:31N 51°54' W 008°25'0 0.0
2017-Jun-22 13:00N 51°54' W 008°25'0 0.0
2017-Jun-22 12:27N 51°54' W 008°25'0 0.0
2017-Jun-22 12:00N 51°54' W 008°25'0 0.0
2017-Jun-22 11:30N 51°54' W 008°25'0 0.0
2017-Jun-22 11:00N 51°54' W 008°25'0 0.0
2017-Jun-22 10:27N 51°54' W 008°25'0 0.0
2017-Jun-22 10:00N 51°54' W 008°25'0 0.0
2017-Jun-22 09:30N 51°54' W 008°25'0 0.0
2017-Jun-22 09:00N 51°54' W 008°25'0 0.0
2017-Jun-22 08:30N 51°54' W 008°25'0 0.0
2017-Jun-22 08:00N 51°54' W 008°25'0 0.0
2017-Jun-22 07:30N 51°54' W 008°25'0 0.0
2017-Jun-22 07:00N 51°54' W 008°25'0 0.0
2017-Jun-22 06:30N 51°54' W 008°25'0 0.0
2017-Jun-22 05:59N 51°54' W 008°25'0 0.0
2017-Jun-22 05:29N 51°54' W 008°25'0 0.0
2017-Jun-22 04:59N 51°54' W 008°25'0 0.0
2017-Jun-22 04:29N 51°54' W 008°25'0 0.0
2017-Jun-22 03:59N 51°54' W 008°25'0 0.0
2017-Jun-22 03:29N 51°54' W 008°25'0 0.0
2017-Jun-21 23:15N 51°54' W 008°25'0 0.0
2017-Jun-21 23:00N 51°54' W 008°25'0 0.0
2017-Jun-21 22:29N 51°54' W 008°25'0 0.0
2017-Jun-21 21:59N 51°54' W 008°25'0 0.0
2017-Jun-21 21:25N 51°54' W 008°25'0 0.0
2017-Jun-21 21:00N 51°54' W 008°25'0 0.0
2017-Jun-21 20:27N 51°54' W 008°25'0 0.0
2017-Jun-21 20:00N 51°54' W 008°25'0 0.0
2017-Jun-21 19:30N 51°54' W 008°25'0 0.0
2017-Jun-21 18:59N 51°54' W 008°25'0 0.0
2017-Jun-21 18:30N 51°54' W 008°25'0 0.0
2017-Jun-21 18:00N 51°54' W 008°25'0 0.0
2017-Jun-21 17:30N 51°54' W 008°25'0 0.0
2017-Jun-21 17:00N 51°54' W 008°25'0 0.0
2017-Jun-21 16:27N 51°54' W 008°25'0 0.0
2017-Jun-21 16:00N 51°54' W 008°25'0 0.0
2017-Jun-21 15:29N 51°54' W 008°25'0 0.0
2017-Jun-21 15:00N 51°54' W 008°25'0 0.0
2017-Jun-21 14:30N 51°54' W 008°25'0 0.0
2017-Jun-21 13:30N 51°54' W 008°25'0 0.0
2017-Jun-21 13:00N 51°54' W 008°25'0 0.0
2017-Jun-21 12:27N 51°54' W 008°25'0 0.0
2017-Jun-21 12:00N 51°54' W 008°25'0 0.0
2017-Jun-21 11:30N 51°54' W 008°25'0 0.0
2017-Jun-21 11:00N 51°54' W 008°25'0 0.0
2017-Jun-21 10:29N 51°54' W 008°25'0 0.0
2017-Jun-21 09:59N 51°54' W 008°25'0 0.0
2017-Jun-21 09:29N 51°54' W 008°25'0 0.0
2017-Jun-21 08:59N 51°54' W 008°25'0 0.0
2017-Jun-21 08:28N 51°54' W 008°25'0 0.0
2017-Jun-21 07:58N 51°54' W 008°25'0 0.0
2017-Jun-21 07:28N 51°54' W 008°25'0 0.0
2017-Jun-21 06:58N 51°54' W 008°25'0 0.0
2017-Jun-21 06:28N 51°54' W 008°25'0 0.0
2017-Jun-21 05:58N 51°54' W 008°25'0 0.0
2017-Jun-21 05:28N 51°54' W 008°25'0 0.0
2017-Jun-21 04:58N 51°54' W 008°25'0 0.0
2017-Jun-21 04:28N 51°54' W 008°25'0 0.0
2017-Jun-21 03:58N 51°54' W 008°25'0 0.0
2017-Jun-21 03:28N 51°54' W 008°25'0 0.0
2017-Jun-21 02:58N 51°54' W 008°25'0 0.0
2017-Jun-21 02:28N 51°54' W 008°25'0 0.0
2017-Jun-21 02:00N 51°54' W 008°25'0 0.0
2017-Jun-21 01:29N 51°54' W 008°25'0 0.0
2017-Jun-21 00:59N 51°54' W 008°25'0 0.1
2017-Jun-21 00:30N 51°54' W 008°25'3 5.9
2017-Jun-21 00:00N 51°53' W 008°21'3 6.2
2017-Jun-20 23:30N 51°51' W 008°17'611.2
2017-Jun-20 23:01N 51°45' W 008°15'5 9.3
2017-Jun-20 22:30N 51°42' W 008°10'715.0
2017-Jun-20 22:01N 51°37' W 008°01'815.6
2017-Jun-20 21:30N 51°32' W 007°52'816.2
2017-Jun-20 21:01N 51°26' W 007°42'816.5
2017-Jun-20 20:30N 51°20' W 007°33'816.4
2017-Jun-20 20:01N 51°15' W 007°24'816.4
2017-Jun-20 19:30N 51°09' W 007°14'816.5
2017-Jun-20 19:00N 51°03' W 007°04'816.3
2017-Jun-20 18:31N 50°58' W 006°55'816.1
2017-Jun-20 18:00N 50°52' W 006°46'816.1
2017-Jun-20 17:29N 50°46' W 006°36'816.1
2017-Jun-20 16:59N 50°41' W 006°27'1016.0
2017-Jun-20 16:22N 50°34' W 006°16'916.0
2017-Jun-20 15:47N 50°27' W 006°05'415.8
2017-Jun-20 15:30N 50°24' W 006°01'815.1
2017-Jun-20 15:00N 50°18' W 005°53'1616.0
2017-Jun-20 14:01N 50°02' W 005°54'2514.9
2017-Jun-20 12:22N 49°56' W 005°17'615.7
2017-Jun-20 11:58N 49°56' W 005°07'714.7
2017-Jun-20 11:30N 49°57' W 004°57'714.4
2017-Jun-20 11:01N 49°58' W 004°46'815.0
2017-Jun-20 10:31N 49°60' W 004°35'916.9
2017-Jun-20 09:58N 50°01' W 004°21'817.1
2017-Jun-20 09:29N 50°02' W 004°08'917.4
2017-Jun-20 08:59N 50°03' W 003°55'917.8
2017-Jun-20 08:30N 50°05' W 003°42'917.7
2017-Jun-20 08:00N 50°07' W 003°28'917.2
2017-Jun-20 07:31N 50°09' W 003°15'816.7
2017-Jun-20 07:00N 50°10' W 003°02'916.3
2017-Jun-20 06:28N 50°12' W 002°49'715.8
2017-Jun-20 06:00N 50°13' W 002°38'815.3
2017-Jun-20 05:30N 50°15' W 002°26'714.9
2017-Jun-20 05:01N 50°16' W 002°14'2914.2
2017-Jun-20 02:59N 50°21' W 001°30'1019.4
2017-Jun-20 02:28N 50°23' W 001°15'4 9.3
2017-Jun-20 02:00N 50°24' W 001°08'815.4
2017-Jun-20 01:30N 50°25' W 000°56'816.8
2017-Jun-20 01:01N 50°27' W 000°44'917.4
2017-Jun-20 00:30N 50°29' W 000°30'917.4
2017-Jun-20 00:01N 50°30' W 000°17'917.6
2017-Jun-19 23:31N 50°31' W 000°03'917.7
2017-Jun-19 23:00N 50°34' E 000°10'917.7
2017-Jun-19 22:30N 50°37' E 000°24'917.3
2017-Jun-19 22:01N 50°39' E 000°36'816.9
2017-Jun-19 21:31N 50°45' E 000°47'816.3
2017-Jun-19 21:01N 50°49' E 000°58'815.9
2017-Jun-19 20:31N 50°54' E 001°08'815.3
2017-Jun-19 20:00N 50°59' E 001°17'714.7
2017-Jun-19 19:30N 51°04' E 001°25'714.3
2017-Jun-19 19:00N 51°08' E 001°35'815.5
2017-Jun-19 18:31N 51°13' E 001°44'816.2
2017-Jun-19 18:01N 51°20' E 001°51'816.9
2017-Jun-19 17:31N 51°27' E 001°59'917.6
2017-Jun-19 17:01N 51°33' E 002°08'917.9
2017-Jun-19 16:31N 51°40' E 002°18'918.3
2017-Jun-19 16:01N 51°47' E 002°28'1018.5
2017-Jun-19 15:28N 51°54' E 002°39'917.6
2017-Jun-19 14:57N 52°01' E 002°50'1918.6
2017-Jun-19 13:55N 52°03' E 003°21'512.9
2017-Jun-19 13:30N 52°03' E 003°29'816.5
2017-Jun-19 13:00N 52°04' E 003°43'714.5
2017-Jun-19 12:30N 52°03' E 003°54'612.6
2017-Jun-19 12:00N 51°60' E 004°03'612.5
2017-Jun-19 11:30N 51°56' E 004°12'611.3
2017-Jun-19 11:00N 51°54' E 004°20'3 6.4
2017-Jun-19 10:30N 51°53' E 004°25'0 0.0
2017-Jun-19 10:00N 51°53' E 004°25'0 0.0
2017-Jun-19 09:31N 51°53' E 004°25'0 0.0
2017-Jun-19 09:00N 51°53' E 004°25'0 0.0
2017-Jun-19 08:31N 51°53' E 004°25'0 0.0
2017-Jun-19 08:01N 51°53' E 004°25'0 0.0
2017-Jun-19 07:31N 51°53' E 004°25'0 0.0
2017-Jun-19 07:00N 51°53' E 004°25'0 0.0
2017-Jun-19 06:30N 51°53' E 004°25'0 0.0
2017-Jun-19 06:01N 51°53' E 004°25'0 0.0
2017-Jun-19 05:30N 51°53' E 004°25'0 0.0
2017-Jun-19 05:00N 51°53' E 004°25'0 0.0
2017-Jun-19 04:31N 51°53' E 004°25'0 0.0
2017-Jun-19 04:00N 51°53' E 004°25'0 0.0
2017-Jun-19 03:31N 51°53' E 004°25'0 0.0
2017-Jun-19 03:00N 51°53' E 004°25'0 0.0
2017-Jun-19 02:31N 51°53' E 004°25'0 0.0
2017-Jun-19 02:01N 51°53' E 004°25'0 0.0
2017-Jun-19 01:31N 51°53' E 004°25'0 0.0
2017-Jun-19 01:01N 51°53' E 004°25'0 0.0
2017-Jun-19 00:31N 51°53' E 004°25'0 0.0
2017-Jun-19 00:00N 51°53' E 004°25'0 0.0
2017-Jun-18 23:30N 51°53' E 004°25'0 0.0
2017-Jun-18 23:00N 51°53' E 004°25'0 0.0
2017-Jun-18 22:29N 51°53' E 004°25'0 0.0
2017-Jun-18 22:00N 51°53' E 004°25'0 0.0
2017-Jun-18 21:30N 51°53' E 004°25'0 0.0
2017-Jun-18 21:00N 51°53' E 004°25'0 0.0
2017-Jun-18 20:30N 51°53' E 004°25'0 0.0
2017-Jun-18 20:00N 51°53' E 004°25'0 0.0
2017-Jun-18 19:29N 51°53' E 004°25'0 0.0
2017-Jun-18 19:00N 51°53' E 004°25'0 0.0
2017-Jun-18 18:30N 51°53' E 004°25'0 0.0
2017-Jun-18 18:00N 51°53' E 004°25'0 0.0
2017-Jun-18 17:30N 51°53' E 004°25'0 0.0
2017-Jun-18 17:00N 51°53' E 004°25'0 0.0
2017-Jun-18 16:29N 51°53' E 004°25'0 0.0
2017-Jun-18 16:00N 51°53' E 004°25'0 0.0
2017-Jun-18 15:30N 51°53' E 004°25'0 0.0
2017-Jun-18 15:00N 51°53' E 004°25'0 0.0
2017-Jun-18 14:00N 51°53' E 004°25'0 0.5
2017-Jun-18 13:30N 51°53' E 004°25'0 0.0
2017-Jun-18 13:00N 51°53' E 004°25'0 0.0
2017-Jun-18 12:30N 51°53' E 004°25'0 0.0
2017-Jun-18 12:00N 51°53' E 004°25'0 0.0
2017-Jun-18 11:30N 51°53' E 004°25'0 0.0
2017-Jun-18 11:00N 51°53' E 004°25'0 0.0
2017-Jun-18 10:30N 51°53' E 004°25'0 0.0
2017-Jun-18 10:00N 51°53' E 004°25'0 0.0
2017-Jun-18 09:30N 51°53' E 004°25'0 0.0
2017-Jun-18 09:00N 51°53' E 004°25'0 0.0
2017-Jun-18 08:30N 51°53' E 004°25'0 0.0
2017-Jun-18 08:00N 51°53' E 004°25'0 0.0
2017-Jun-18 07:30N 51°53' E 004°25'0 0.0
2017-Jun-18 07:00N 51°53' E 004°25'0 0.0
2017-Jun-18 06:30N 51°53' E 004°25'0 0.0
2017-Jun-18 06:00N 51°53' E 004°25'0 0.0
2017-Jun-18 05:30N 51°53' E 004°25'0 0.0
2017-Jun-18 05:00N 51°53' E 004°25'0 0.0
2017-Jun-18 04:30N 51°53' E 004°25'0 0.0
2017-Jun-18 04:00N 51°53' E 004°25'0 0.0
2017-Jun-18 03:30N 51°53' E 004°25'1 1.0
2017-Jun-18 03:00N 51°53' E 004°24'3 6.8
2017-Jun-18 02:30N 51°54' E 004°19'5 9.1
2017-Jun-18 02:00N 51°56' E 004°13'510.3
2017-Jun-18 01:30N 51°59' E 004°06'2 3.4
2017-Jun-18 01:00N 51°58' E 004°04'0 0.0
2017-Jun-18 00:30N 51°58' E 004°04'0 0.0
2017-Jun-18 00:00N 51°58' E 004°04'0 0.0
2017-Jun-17 23:30N 51°58' E 004°04'0 0.0
2017-Jun-17 23:00N 51°58' E 004°04'0 0.0
2017-Jun-17 22:30N 51°58' E 004°04'0 0.0
2017-Jun-17 22:00N 51°58' E 004°04'0 0.0
2017-Jun-17 21:30N 51°58' E 004°04'0 0.0
2017-Jun-17 21:00N 51°58' E 004°04'0 0.1
2017-Jun-17 20:30N 51°58' E 004°04'0 0.1
2017-Jun-17 20:00N 51°58' E 004°04'2 4.9
2017-Jun-17 19:30N 51°58' E 004°00'1 1.9
2017-Jun-17 19:00N 51°57' E 004°00'0 0.1
2017-Jun-17 18:30N 51°57' E 004°00'0 0.0
2017-Jun-17 18:00N 51°57' E 004°00'0 0.0
2017-Jun-17 17:30N 51°57' E 004°00'0 0.0
2017-Jun-17 17:00N 51°57' E 004°00'0 0.0
2017-Jun-17 16:30N 51°57' E 004°00'0 0.2
2017-Jun-17 15:59N 51°57' E 004°00'0 0.0
2017-Jun-17 15:16N 51°57' E 004°00'0 0.0
2017-Jun-17 15:00N 51°57' E 004°00'0 0.0
2017-Jun-17 14:30N 51°57' E 004°00'0 0.3
2017-Jun-17 13:30N 51°57' E 003°60'1 2.1
2017-Jun-17 13:00N 51°58' E 003°60'2 3.8
2017-Jun-17 12:30N 51°58' E 004°03'0 0.1
2017-Jun-17 12:00N 51°58' E 004°03'0 0.0
2017-Jun-17 11:30N 51°58' E 004°03'0 0.0
2017-Jun-17 11:00N 51°58' E 004°03'0 0.1
2017-Jun-17 10:30N 51°57' E 004°03'0 0.0
2017-Jun-17 10:00N 51°57' E 004°03'0 0.0
2017-Jun-17 09:30N 51°57' E 004°03'0 0.0
2017-Jun-17 09:00N 51°57' E 004°03'0 0.0
2017-Jun-17 08:30N 51°57' E 004°03'0 0.0
2017-Jun-17 08:00N 51°57' E 004°03'0 0.0
2017-Jun-17 07:30N 51°57' E 004°03'0 0.0
2017-Jun-17 07:00N 51°57' E 004°03'0 0.0
2017-Jun-17 06:30N 51°57' E 004°03'0 0.0
2017-Jun-17 06:00N 51°57' E 004°03'0 0.0
2017-Jun-17 05:30N 51°57' E 004°03'0 0.0
2017-Jun-17 05:00N 51°57' E 004°03'0 0.1
2017-Jun-17 04:30N 51°58' E 004°03'2 3.6
2017-Jun-17 04:00N 51°59' E 004°03'713.4
2017-Jun-17 03:30N 51°60' E 003°52'611.5
2017-Jun-17 03:00N 51°58' E 003°43'611.7
2017-Jun-17 02:30N 51°57' E 003°34'611.9
2017-Jun-17 02:00N 51°55' E 003°24'610.8
2017-Jun-17 01:29N 51°53' E 003°16'511.0
2017-Jun-17 01:00N 51°52' E 003°07'510.5
2017-Jun-17 00:30N 51°50' E 002°59'510.2
2017-Jun-17 00:00N 51°49' E 002°51'510.3
2017-Jun-16 23:30N 51°47' E 002°43'5 9.6
2017-Jun-16 23:00N 51°45' E 002°36'510.0
2017-Jun-16 22:30N 51°41' E 002°31'510.2
2017-Jun-16 22:00N 51°38' E 002°26'510.4
2017-Jun-16 21:30N 51°34' E 002°20'510.2
2017-Jun-16 21:00N 51°30' E 002°14'510.3
2017-Jun-16 20:30N 51°27' E 002°09'612.9
2017-Jun-16 20:00N 51°20' E 002°06'612.4
2017-Jun-16 19:30N 51°14' E 002°03'510.8
2017-Jun-16 19:01N 51°11' E 001°56'611.2
2017-Jun-16 18:30N 51°08' E 001°48'714.1
2017-Jun-16 18:00N 51°03' E 001°40'714.7
2017-Jun-16 17:30N 50°58' E 001°32'714.3
2017-Jun-16 17:01N 50°52' E 001°26'814.3
2017-Jun-16 16:28N 50°45' E 001°22'713.3
2017-Jun-16 15:54N 50°39' E 001°15'3513.6
2017-Jun-16 13:19N 50°24' E 000°24'414.7
2017-Jun-16 13:01N 50°23' E 000°18'714.8
2017-Jun-16 12:31N 50°21' E 000°07'714.6
2017-Jun-16 12:01N 50°20' W 000°05'  
Track history (hours):
 
Tides and Currents Weather Stations Pressure Air Temp Water Temp Dewpoint Dewpoint Depression Visibility Wind Speed Wind Dir Waves Ship Positions

Anne Sibum

Last reported at 2017-Jun-26 12:00 UTC. Time now 2017-Jun-26 12:16 UTC.
Position N 51°53' E 004°25'.

Length 151 m; draft 8.2 m.

Type: Ship (hazmat cat A). MMSI: 209322000.

Date/timePositionNaut miles runAvg speedWind from/ knotsBaromVisibWave heightAir tempDewpointWater temp
2017-Jun-26 12:00N 51°53' E 004°25'0 0.0
2017-Jun-26 11:30N 51°53' E 004°25'0 0.0
2017-Jun-26 11:00N 51°53' E 004°25'0 0.0
2017-Jun-26 10:30N 51°53' E 004°25'0 0.0
2017-Jun-26 10:00N 51°53' E 004°25'0 0.0
2017-Jun-26 09:30N 51°53' E 004°25'0 0.0
2017-Jun-26 09:00N 51°53' E 004°25'0 0.0
2017-Jun-26 08:29N 51°53' E 004°25'0 0.0
2017-Jun-26 07:58N 51°53' E 004°25'0 0.0
2017-Jun-26 07:29N 51°53' E 004°25'0 0.0
2017-Jun-26 07:00N 51°53' E 004°25'0 0.0
2017-Jun-26 06:30N 51°53' E 004°25'0 0.0
2017-Jun-26 06:00N 51°53' E 004°25'0 0.0
2017-Jun-26 05:29N 51°53' E 004°25'0 0.0
2017-Jun-26 05:00N 51°53' E 004°25'0 0.0
2017-Jun-26 04:29N 51°53' E 004°25'0 0.0
2017-Jun-26 03:59N 51°53' E 004°25'0 0.0
2017-Jun-26 03:29N 51°53' E 004°25'0 0.0
2017-Jun-26 03:00N 51°53' E 004°25'0 0.0
2017-Jun-26 02:29N 51°53' E 004°25'0 0.0
2017-Jun-26 02:00N 51°53' E 004°25'0 0.0
2017-Jun-26 01:29N 51°53' E 004°25'0 0.0
2017-Jun-26 00:59N 51°53' E 004°25'0 0.0
2017-Jun-26 00:30N 51°53' E 004°25'0 0.0
2017-Jun-26 00:01N 51°53' E 004°25'0 0.5
2017-Jun-25 23:30N 51°53' E 004°25'0 0.0
2017-Jun-25 23:00N 51°53' E 004°25'0 0.0
2017-Jun-25 22:30N 51°53' E 004°25'0 0.0
2017-Jun-25 21:59N 51°53' E 004°25'0 0.0
2017-Jun-25 21:30N 51°53' E 004°25'0 0.0
2017-Jun-25 20:58N 51°53' E 004°25'0 0.0
2017-Jun-25 20:30N 51°53' E 004°25'0 0.0
2017-Jun-25 20:00N 51°53' E 004°25'0 0.0
2017-Jun-25 19:30N 51°53' E 004°25'0 0.0
2017-Jun-25 19:00N 51°53' E 004°25'0 0.0
2017-Jun-25 18:29N 51°53' E 004°25'0 0.0
2017-Jun-25 18:00N 51°53' E 004°25'0 0.0
2017-Jun-25 17:29N 51°53' E 004°25'0 0.0
2017-Jun-25 17:00N 51°53' E 004°25'0 0.0
2017-Jun-25 16:30N 51°53' E 004°25'0 0.0
2017-Jun-25 16:00N 51°53' E 004°25'0 0.0
2017-Jun-25 15:30N 51°53' E 004°25'0 0.0
2017-Jun-25 15:00N 51°53' E 004°25'0 0.0
2017-Jun-25 14:00N 51°53' E 004°25'0 0.0
2017-Jun-25 13:30N 51°53' E 004°25'0 0.0
2017-Jun-25 13:00N 51°53' E 004°25'1 1.7
2017-Jun-25 12:30N 51°53' E 004°24'4 7.7
2017-Jun-25 12:00N 51°54' E 004°18'510.7
2017-Jun-25 11:30N 51°57' E 004°11'4 7.6
2017-Jun-25 11:00N 51°58' E 004°05'2 4.5
2017-Jun-25 10:30N 51°57' E 004°03'0 0.3
2017-Jun-25 10:00N 51°57' E 004°03'0 0.0
2017-Jun-25 09:30N 51°57' E 004°03'0 0.0
2017-Jun-25 09:00N 51°57' E 004°03'0 0.0
2017-Jun-25 08:30N 51°57' E 004°03'0 0.0
2017-Jun-25 07:59N 51°57' E 004°03'0 0.0
2017-Jun-25 07:30N 51°57' E 004°03'0 0.0
2017-Jun-25 07:00N 51°57' E 004°03'0 0.0
2017-Jun-25 06:30N 51°57' E 004°03'0 0.0
2017-Jun-25 06:00N 51°57' E 004°03'0 0.0
2017-Jun-25 05:30N 51°57' E 004°03'0 0.0
2017-Jun-25 05:00N 51°57' E 004°03'0 0.0
2017-Jun-25 04:30N 51°57' E 004°03'0 0.0
2017-Jun-25 04:00N 51°57' E 004°03'0 0.0
2017-Jun-25 03:29N 51°57' E 004°03'0 0.0
2017-Jun-25 03:00N 51°57' E 004°03'1 1.3
2017-Jun-25 02:30N 51°57' E 004°04'2 4.9
2017-Jun-25 02:00N 51°59' E 004°01'1 2.4
2017-Jun-25 01:30N 51°57' E 004°00'0 0.0
2017-Jun-25 01:00N 51°57' E 004°00'0 0.0
2017-Jun-25 00:30N 51°57' E 004°00'0 0.0
2017-Jun-25 00:00N 51°57' E 004°00'0 0.0
2017-Jun-24 23:30N 51°57' E 004°00'0 0.0
2017-Jun-24 23:00N 51°57' E 004°00'0 0.0
2017-Jun-24 22:30N 51°57' E 004°00'0 0.0
2017-Jun-24 21:59N 51°57' E 004°00'0 0.4
2017-Jun-24 21:30N 51°58' E 004°00'1 2.8
2017-Jun-24 21:00N 51°58' E 004°02'1 1.5
2017-Jun-24 20:30N 51°58' E 004°03'0 0.0
2017-Jun-24 19:58N 51°58' E 004°03'0 0.0
2017-Jun-24 19:27N 51°58' E 004°03'0 0.0
2017-Jun-24 19:00N 51°58' E 004°03'0 0.0
2017-Jun-24 18:30N 51°58' E 004°03'0 0.0
2017-Jun-24 18:00N 51°58' E 004°03'0 0.0
2017-Jun-24 17:30N 51°58' E 004°03'0 0.0
2017-Jun-24 17:00N 51°58' E 004°03'0 0.0
2017-Jun-24 16:30N 51°58' E 004°03'0 0.0
2017-Jun-24 16:00N 51°58' E 004°03'0 0.0
2017-Jun-24 15:30N 51°58' E 004°03'1 1.0
2017-Jun-24 15:00N 51°58' E 004°03'0 0.1
2017-Jun-24 14:00N 51°57' E 004°02'0 0.0
2017-Jun-24 13:30N 51°57' E 004°02'0 0.0
2017-Jun-24 13:00N 51°57' E 004°02'0 0.0
2017-Jun-24 12:30N 51°57' E 004°02'0 0.0
2017-Jun-24 11:59N 51°57' E 004°02'0 0.0
2017-Jun-24 11:30N 51°57' E 004°02'0 0.0
2017-Jun-24 11:00N 51°57' E 004°02'0 0.0
2017-Jun-24 10:30N 51°57' E 004°02'0 0.0
2017-Jun-24 10:00N 51°57' E 004°02'0 0.0
2017-Jun-24 09:30N 51°57' E 004°02'0 0.0
2017-Jun-24 09:00N 51°57' E 004°02'0 0.0
2017-Jun-24 08:30N 51°57' E 004°02'0 0.0
2017-Jun-24 08:00N 51°57' E 004°02'0 0.0
2017-Jun-24 07:30N 51°57' E 004°02'0 0.0
2017-Jun-24 07:00N 51°57' E 004°02'0 0.0
2017-Jun-24 06:30N 51°57' E 004°02'0 0.0
2017-Jun-24 06:00N 51°57' E 004°02'0 0.0
2017-Jun-24 05:30N 51°57' E 004°02'0 0.1
2017-Jun-24 05:00N 51°58' E 004°03'2 3.4
2017-Jun-24 04:31N 51°58' E 004°05'510.4
2017-Jun-24 04:00N 51°60' E 003°57'713.3
2017-Jun-24 03:31N 52°00' E 003°46'713.5
2017-Jun-24 03:00N 51°57' E 003°36'1122.8
2017-Jun-24 02:30N 51°54' E 003°19'3 5.5
2017-Jun-24 01:59N 51°54' E 003°14'814.0
2017-Jun-24 01:26N 51°52' E 003°02'613.9
2017-Jun-24 00:59N 51°50' E 002°52'713.5
2017-Jun-24 00:28N 51°48' E 002°41'614.0
2017-Jun-24 00:00N 51°44' E 002°34'714.2
2017-Jun-23 23:30N 51°38' E 002°27'714.0
2017-Jun-23 23:00N 51°33' E 002°20'815.2
2017-Jun-23 22:31N 51°27' E 002°12'815.4
2017-Jun-23 21:59N 51°20' E 002°07'715.2
2017-Jun-23 21:30N 51°13' E 002°02'916.0
2017-Jun-23 20:58N 51°08' E 001°51'715.3
2017-Jun-23 20:30N 51°03' E 001°42'714.7
2017-Jun-23 20:00N 50°58' E 001°34'714.0
2017-Jun-23 19:30N 50°52' E 001°29'5413.0
2017-Jun-23 15:20N 50°23' E 000°16'413.0
2017-Jun-23 15:00N 50°22' E 000°10'1312.9
2017-Jun-23 14:01N 50°18' W 000°09'612.6
2017-Jun-23 13:30N 50°17' W 000°19'6013.4
2017-Jun-23 09:02N 50°14' W 001°52'216.6
2017-Jun-23 08:57N 50°14' W 001°55'1617.2
2017-Jun-23 08:02N 50°11' W 002°19'317.3
2017-Jun-23 07:51N 50°11' W 002°24'817.3
2017-Jun-23 07:22N 50°10' W 002°37'617.1
2017-Jun-23 07:00N 50°09' W 002°46'817.0
2017-Jun-23 06:31N 50°08' W 002°59'917.3
2017-Jun-23 06:00N 50°06' W 003°13'917.9
2017-Jun-23 05:30N 50°05' W 003°26'917.9
2017-Jun-23 05:00N 50°04' W 003°40'918.0
2017-Jun-23 04:31N 50°02' W 003°54'1117.8
2017-Jun-23 03:54N 50°01' W 004°11'717.4
2017-Jun-23 03:30N 49°60' W 004°21'917.3
2017-Jun-23 03:00N 49°59' W 004°35'815.9
2017-Jun-23 02:30N 49°57' W 004°47'815.0
2017-Jun-23 01:57N 49°56' W 004°59'716.7
2017-Jun-23 01:30N 49°55' W 005°11'816.5
2017-Jun-23 01:00N 49°55' W 005°24'816.3
2017-Jun-23 00:30N 49°55' W 005°36'816.1
2017-Jun-23 00:00N 49°55' W 005°49'1612.6
2017-Jun-22 22:43N 50°10' W 006°01'416.8
2017-Jun-22 22:30N 50°13' W 006°02'1016.3
2017-Jun-22 21:51N 50°23' W 006°07'716.9
2017-Jun-22 21:27N 50°28' W 006°14'916.9
2017-Jun-22 20:55N 50°34' W 006°24'816.9
2017-Jun-22 20:28N 50°40' W 006°33'816.8
2017-Jun-22 20:00N 50°45' W 006°42'816.9
2017-Jun-22 19:30N 50°51' W 006°51'916.9
2017-Jun-22 19:00N 50°57' W 007°00'817.0
2017-Jun-22 18:30N 51°03' W 007°09'917.0
2017-Jun-22 17:59N 51°10' W 007°19'817.1
2017-Jun-22 17:29N 51°16' W 007°29'817.0
2017-Jun-22 17:00N 51°22' W 007°38'816.8
2017-Jun-22 16:30N 51°28' W 007°47'816.8
2017-Jun-22 16:00N 51°34' W 007°57'816.7
2017-Jun-22 15:30N 51°39' W 008°06'816.3
2017-Jun-22 15:00N 51°46' W 008°15'510.8
2017-Jun-22 14:31N 51°51' W 008°16'6 6.3
2017-Jun-22 13:31N 51°54' W 008°25'0 0.0
2017-Jun-22 13:00N 51°54' W 008°25'0 0.0
2017-Jun-22 12:27N 51°54' W 008°25'0 0.0
2017-Jun-22 12:00N 51°54' W 008°25'0 0.0
2017-Jun-22 11:30N 51°54' W 008°25'0 0.0
2017-Jun-22 11:00N 51°54' W 008°25'0 0.0
2017-Jun-22 10:27N 51°54' W 008°25'0 0.0
2017-Jun-22 10:00N 51°54' W 008°25'0 0.0
2017-Jun-22 09:30N 51°54' W 008°25'0 0.0
2017-Jun-22 09:00N 51°54' W 008°25'0 0.0
2017-Jun-22 08:30N 51°54' W 008°25'0 0.0
2017-Jun-22 08:00N 51°54' W 008°25'0 0.0
2017-Jun-22 07:30N 51°54' W 008°25'0 0.0
2017-Jun-22 07:00N 51°54' W 008°25'0 0.0
2017-Jun-22 06:30N 51°54' W 008°25'0 0.0
2017-Jun-22 05:59N 51°54' W 008°25'0 0.0
2017-Jun-22 05:29N 51°54' W 008°25'0 0.0
2017-Jun-22 04:59N 51°54' W 008°25'0 0.0
2017-Jun-22 04:29N 51°54' W 008°25'0 0.0
2017-Jun-22 03:59N 51°54' W 008°25'0 0.0
2017-Jun-22 03:29N 51°54' W 008°25'0 0.0
2017-Jun-21 23:15N 51°54' W 008°25'0 0.0
2017-Jun-21 23:00N 51°54' W 008°25'0 0.0
2017-Jun-21 22:29N 51°54' W 008°25'0 0.0
2017-Jun-21 21:59N 51°54' W 008°25'0 0.0
2017-Jun-21 21:25N 51°54' W 008°25'0 0.0
2017-Jun-21 21:00N 51°54' W 008°25'0 0.0
2017-Jun-21 20:27N 51°54' W 008°25'0 0.0
2017-Jun-21 20:00N 51°54' W 008°25'0 0.0
2017-Jun-21 19:30N 51°54' W 008°25'0 0.0
2017-Jun-21 18:59N 51°54' W 008°25'0 0.0
2017-Jun-21 18:30N 51°54' W 008°25'0 0.0
2017-Jun-21 18:00N 51°54' W 008°25'0 0.0
2017-Jun-21 17:30N 51°54' W 008°25'0 0.0
2017-Jun-21 17:00N 51°54' W 008°25'0 0.0
2017-Jun-21 16:27N 51°54' W 008°25'0 0.0
2017-Jun-21 16:00N 51°54' W 008°25'0 0.0
2017-Jun-21 15:29N 51°54' W 008°25'0 0.0
2017-Jun-21 15:00N 51°54' W 008°25'0 0.0
2017-Jun-21 14:30N 51°54' W 008°25'0 0.0
2017-Jun-21 13:30N 51°54' W 008°25'0 0.0
2017-Jun-21 13:00N 51°54' W 008°25'0 0.0
2017-Jun-21 12:27N 51°54' W 008°25'0 0.0
2017-Jun-21 12:00N 51°54' W 008°25'0 0.0
2017-Jun-21 11:30N 51°54' W 008°25'0 0.0
2017-Jun-21 11:00N 51°54' W 008°25'0 0.0
2017-Jun-21 10:29N 51°54' W 008°25'0 0.0
2017-Jun-21 09:59N 51°54' W 008°25'0 0.0
2017-Jun-21 09:29N 51°54' W 008°25'0 0.0
2017-Jun-21 08:59N 51°54' W 008°25'0 0.0
2017-Jun-21 08:28N 51°54' W 008°25'0 0.0
2017-Jun-21 07:58N 51°54' W 008°25'0 0.0
2017-Jun-21 07:28N 51°54' W 008°25'0 0.0
2017-Jun-21 06:58N 51°54' W 008°25'0 0.0
2017-Jun-21 06:28N 51°54' W 008°25'0 0.0
2017-Jun-21 05:58N 51°54' W 008°25'0 0.0
2017-Jun-21 05:28N 51°54' W 008°25'0 0.0
2017-Jun-21 04:58N 51°54' W 008°25'0 0.0
2017-Jun-21 04:28N 51°54' W 008°25'0 0.0
2017-Jun-21 03:58N 51°54' W 008°25'0 0.0
2017-Jun-21 03:28N 51°54' W 008°25'0 0.0
2017-Jun-21 02:58N 51°54' W 008°25'0 0.0
2017-Jun-21 02:28N 51°54' W 008°25'0 0.0
2017-Jun-21 02:00N 51°54' W 008°25'0 0.0
2017-Jun-21 01:29N 51°54' W 008°25'0 0.0
2017-Jun-21 00:59N 51°54' W 008°25'0 0.1
2017-Jun-21 00:30N 51°54' W 008°25'3 5.9
2017-Jun-21 00:00N 51°53' W 008°21'3 6.2
2017-Jun-20 23:30N 51°51' W 008°17'611.2
2017-Jun-20 23:01N 51°45' W 008°15'5 9.3
2017-Jun-20 22:30N 51°42' W 008°10'715.0
2017-Jun-20 22:01N 51°37' W 008°01'815.6
2017-Jun-20 21:30N 51°32' W 007°52'816.2
2017-Jun-20 21:01N 51°26' W 007°42'816.5
2017-Jun-20 20:30N 51°20' W 007°33'816.4
2017-Jun-20 20:01N 51°15' W 007°24'816.4
2017-Jun-20 19:30N 51°09' W 007°14'816.5
2017-Jun-20 19:00N 51°03' W 007°04'816.3
2017-Jun-20 18:31N 50°58' W 006°55'816.1
2017-Jun-20 18:00N 50°52' W 006°46'816.1
2017-Jun-20 17:29N 50°46' W 006°36'816.1
2017-Jun-20 16:59N 50°41' W 006°27'1016.0
2017-Jun-20 16:22N 50°34' W 006°16'916.0
2017-Jun-20 15:47N 50°27' W 006°05'415.8
2017-Jun-20 15:30N 50°24' W 006°01'815.1
2017-Jun-20 15:00N 50°18' W 005°53'1616.0
2017-Jun-20 14:01N 50°02' W 005°54'2514.9
2017-Jun-20 12:22N 49°56' W 005°17'615.7
2017-Jun-20 11:58N 49°56' W 005°07'714.7
2017-Jun-20 11:30N 49°57' W 004°57'714.4
2017-Jun-20 11:01N 49°58' W 004°46'815.0
2017-Jun-20 10:31N 49°60' W 004°35'916.9
2017-Jun-20 09:58N 50°01' W 004°21'817.1
2017-Jun-20 09:29N 50°02' W 004°08'917.4
2017-Jun-20 08:59N 50°03' W 003°55'917.8
2017-Jun-20 08:30N 50°05' W 003°42'917.7
2017-Jun-20 08:00N 50°07' W 003°28'917.2
2017-Jun-20 07:31N 50°09' W 003°15'816.7
2017-Jun-20 07:00N 50°10' W 003°02'916.3
2017-Jun-20 06:28N 50°12' W 002°49'715.8
2017-Jun-20 06:00N 50°13' W 002°38'815.3
2017-Jun-20 05:30N 50°15' W 002°26'714.9
2017-Jun-20 05:01N 50°16' W 002°14'2914.2
2017-Jun-20 02:59N 50°21' W 001°30'1019.4
2017-Jun-20 02:28N 50°23' W 001°15'4 9.3
2017-Jun-20 02:00N 50°24' W 001°08'815.4
2017-Jun-20 01:30N 50°25' W 000°56'816.8
2017-Jun-20 01:01N 50°27' W 000°44'917.4
2017-Jun-20 00:30N 50°29' W 000°30'917.4
2017-Jun-20 00:01N 50°30' W 000°17'917.6
2017-Jun-19 23:31N 50°31' W 000°03'917.7
2017-Jun-19 23:00N 50°34' E 000°10'917.7
2017-Jun-19 22:30N 50°37' E 000°24'917.3
2017-Jun-19 22:01N 50°39' E 000°36'816.9
2017-Jun-19 21:31N 50°45' E 000°47'816.3
2017-Jun-19 21:01N 50°49' E 000°58'815.9
2017-Jun-19 20:31N 50°54' E 001°08'815.3
2017-Jun-19 20:00N 50°59' E 001°17'714.7
2017-Jun-19 19:30N 51°04' E 001°25'714.3
2017-Jun-19 19:00N 51°08' E 001°35'815.5
2017-Jun-19 18:31N 51°13' E 001°44'816.2
2017-Jun-19 18:01N 51°20' E 001°51'816.9
2017-Jun-19 17:31N 51°27' E 001°59'917.6
2017-Jun-19 17:01N 51°33' E 002°08'917.9
2017-Jun-19 16:31N 51°40' E 002°18'918.3
2017-Jun-19 16:01N 51°47' E 002°28'1018.5
2017-Jun-19 15:28N 51°54' E 002°39'917.6
2017-Jun-19 14:57N 52°01' E 002°50'1918.6
2017-Jun-19 13:55N 52°03' E 003°21'512.9
2017-Jun-19 13:30N 52°03' E 003°29'816.5
2017-Jun-19 13:00N 52°04' E 003°43'714.5
2017-Jun-19 12:30N 52°03' E 003°54'612.6
2017-Jun-19 12:00N 51°60' E 004°03'612.5
2017-Jun-19 11:30N 51°56' E 004°12'611.3
2017-Jun-19 11:00N 51°54' E 004°20'3 6.4
2017-Jun-19 10:30N 51°53' E 004°25'0 0.0
2017-Jun-19 10:00N 51°53' E 004°25'0 0.0
2017-Jun-19 09:31N 51°53' E 004°25'0 0.0
2017-Jun-19 09:00N 51°53' E 004°25'0 0.0
2017-Jun-19 08:31N 51°53' E 004°25'0 0.0
2017-Jun-19 08:01N 51°53' E 004°25'0 0.0
2017-Jun-19 07:31N 51°53' E 004°25'0 0.0
2017-Jun-19 07:00N 51°53' E 004°25'0 0.0
2017-Jun-19 06:30N 51°53' E 004°25'0 0.0
2017-Jun-19 06:01N 51°53' E 004°25'0 0.0
2017-Jun-19 05:30N 51°53' E 004°25'0 0.0
2017-Jun-19 05:00N 51°53' E 004°25'0 0.0
2017-Jun-19 04:31N 51°53' E 004°25'0 0.0
2017-Jun-19 04:00N 51°53' E 004°25'0 0.0
2017-Jun-19 03:31N 51°53' E 004°25'0 0.0
2017-Jun-19 03:00N 51°53' E 004°25'0 0.0
2017-Jun-19 02:31N 51°53' E 004°25'0 0.0
2017-Jun-19 02:01N 51°53' E 004°25'0 0.0
2017-Jun-19 01:31N 51°53' E 004°25'0 0.0
2017-Jun-19 01:01N 51°53' E 004°25'0 0.0
2017-Jun-19 00:31N 51°53' E 004°25'0 0.0
2017-Jun-19 00:00N 51°53' E 004°25'0 0.0
2017-Jun-18 23:30N 51°53' E 004°25'0 0.0
2017-Jun-18 23:00N 51°53' E 004°25'0 0.0
2017-Jun-18 22:29N 51°53' E 004°25'0 0.0
2017-Jun-18 22:00N 51°53' E 004°25'0 0.0
2017-Jun-18 21:30N 51°53' E 004°25'0 0.0
2017-Jun-18 21:00N 51°53' E 004°25'0 0.0
2017-Jun-18 20:30N 51°53' E 004°25'0 0.0
2017-Jun-18 20:00N 51°53' E 004°25'0 0.0
2017-Jun-18 19:29N 51°53' E 004°25'0 0.0
2017-Jun-18 19:00N 51°53' E 004°25'0 0.0
2017-Jun-18 18:30N 51°53' E 004°25'0 0.0
2017-Jun-18 18:00N 51°53' E 004°25'0 0.0
2017-Jun-18 17:30N 51°53' E 004°25'0 0.0
2017-Jun-18 17:00N 51°53' E 004°25'0 0.0
2017-Jun-18 16:29N 51°53' E 004°25'0 0.0
2017-Jun-18 16:00N 51°53' E 004°25'0 0.0
2017-Jun-18 15:30N 51°53' E 004°25'0 0.0
2017-Jun-18 15:00N 51°53' E 004°25'0 0.0
2017-Jun-18 14:00N 51°53' E 004°25'0 0.5
2017-Jun-18 13:30N 51°53' E 004°25'0 0.0
2017-Jun-18 13:00N 51°53' E 004°25'0 0.0
2017-Jun-18 12:30N 51°53' E 004°25'0 0.0
2017-Jun-18 12:00N 51°53' E 004°25'0 0.0
2017-Jun-18 11:30N 51°53' E 004°25'0 0.0
2017-Jun-18 11:00N 51°53' E 004°25'0 0.0
2017-Jun-18 10:30N 51°53' E 004°25'0 0.0
2017-Jun-18 10:00N 51°53' E 004°25'0 0.0
2017-Jun-18 09:30N 51°53' E 004°25'0 0.0
2017-Jun-18 09:00N 51°53' E 004°25'0 0.0
2017-Jun-18 08:30N 51°53' E 004°25'0 0.0
2017-Jun-18 08:00N 51°53' E 004°25'0 0.0
2017-Jun-18 07:30N 51°53' E 004°25'0 0.0
2017-Jun-18 07:00N 51°53' E 004°25'0 0.0
2017-Jun-18 06:30N 51°53' E 004°25'0 0.0
2017-Jun-18 06:00N 51°53' E 004°25'0 0.0
2017-Jun-18 05:30N 51°53' E 004°25'0 0.0
2017-Jun-18 05:00N 51°53' E 004°25'0 0.0
2017-Jun-18 04:30N 51°53' E 004°25'0 0.0
2017-Jun-18 04:00N 51°53' E 004°25'0 0.0
2017-Jun-18 03:30N 51°53' E 004°25'1 1.0
2017-Jun-18 03:00N 51°53' E 004°24'3 6.8
2017-Jun-18 02:30N 51°54' E 004°19'5 9.1
2017-Jun-18 02:00N 51°56' E 004°13'510.3
2017-Jun-18 01:30N 51°59' E 004°06'2 3.4
2017-Jun-18 01:00N 51°58' E 004°04'0 0.0
2017-Jun-18 00:30N 51°58' E 004°04'0 0.0
2017-Jun-18 00:00N 51°58' E 004°04'0 0.0
2017-Jun-17 23:30N 51°58' E 004°04'0 0.0
2017-Jun-17 23:00N 51°58' E 004°04'0 0.0
2017-Jun-17 22:30N 51°58' E 004°04'0 0.0
2017-Jun-17 22:00N 51°58' E 004°04'0 0.0
2017-Jun-17 21:30N 51°58' E 004°04'0 0.0
2017-Jun-17 21:00N 51°58' E 004°04'0 0.1
2017-Jun-17 20:30N 51°58' E 004°04'0 0.1
2017-Jun-17 20:00N 51°58' E 004°04'2 4.9
2017-Jun-17 19:30N 51°58' E 004°00'1 1.9
2017-Jun-17 19:00N 51°57' E 004°00'0 0.1
2017-Jun-17 18:30N 51°57' E 004°00'0 0.0
2017-Jun-17 18:00N 51°57' E 004°00'0 0.0
2017-Jun-17 17:30N 51°57' E 004°00'0 0.0
2017-Jun-17 17:00N 51°57' E 004°00'0 0.0
2017-Jun-17 16:30N 51°57' E 004°00'0 0.2
2017-Jun-17 15:59N 51°57' E 004°00'0 0.0
2017-Jun-17 15:16N 51°57' E 004°00'0 0.0
2017-Jun-17 15:00N 51°57' E 004°00'0 0.0
2017-Jun-17 14:30N 51°57' E 004°00'0 0.3
2017-Jun-17 13:30N 51°57' E 003°60'1 2.1
2017-Jun-17 13:00N 51°58' E 003°60'2 3.8
2017-Jun-17 12:30N 51°58' E 004°03'0 0.1
2017-Jun-17 12:00N 51°58' E 004°03'0 0.0
2017-Jun-17 11:30N 51°58' E 004°03'0 0.0
2017-Jun-17 11:00N 51°58' E 004°03'0 0.1
2017-Jun-17 10:30N 51°57' E 004°03'0 0.0
2017-Jun-17 10:00N 51°57' E 004°03'0 0.0
2017-Jun-17 09:30N 51°57' E 004°03'0 0.0
2017-Jun-17 09:00N 51°57' E 004°03'0 0.0
2017-Jun-17 08:30N 51°57' E 004°03'0 0.0
2017-Jun-17 08:00N 51°57' E 004°03'0 0.0
2017-Jun-17 07:30N 51°57' E 004°03'0 0.0
2017-Jun-17 07:00N 51°57' E 004°03'0 0.0
2017-Jun-17 06:30N 51°57' E 004°03'0 0.0
2017-Jun-17 06:00N 51°57' E 004°03'0 0.0
2017-Jun-17 05:30N 51°57' E 004°03'0 0.0
2017-Jun-17 05:00N 51°57' E 004°03'0 0.1
2017-Jun-17 04:30N 51°58' E 004°03'2 3.6
2017-Jun-17 04:00N 51°59' E 004°03'713.4
2017-Jun-17 03:30N 51°60' E 003°52'611.5
2017-Jun-17 03:00N 51°58' E 003°43'611.7
2017-Jun-17 02:30N 51°57' E 003°34'611.9
2017-Jun-17 02:00N 51°55' E 003°24'610.8
2017-Jun-17 01:29N 51°53' E 003°16'511.0
2017-Jun-17 01:00N 51°52' E 003°07'510.5
2017-Jun-17 00:30N 51°50' E 002°59'510.2
2017-Jun-17 00:00N 51°49' E 002°51'510.3
2017-Jun-16 23:30N 51°47' E 002°43'5 9.6
2017-Jun-16 23:00N 51°45' E 002°36'510.0
2017-Jun-16 22:30N 51°41' E 002°31'510.2
2017-Jun-16 22:00N 51°38' E 002°26'510.4
2017-Jun-16 21:30N 51°34' E 002°20'510.2
2017-Jun-16 21:00N 51°30' E 002°14'510.3
2017-Jun-16 20:30N 51°27' E 002°09'612.9
2017-Jun-16 20:00N 51°20' E 002°06'612.4
2017-Jun-16 19:30N 51°14' E 002°03'510.8
2017-Jun-16 19:01N 51°11' E 001°56'611.2
2017-Jun-16 18:30N 51°08' E 001°48'714.1
2017-Jun-16 18:00N 51°03' E 001°40'714.7
2017-Jun-16 17:30N 50°58' E 001°32'714.3
2017-Jun-16 17:01N 50°52' E 001°26'814.3
2017-Jun-16 16:28N 50°45' E 001°22'713.3
2017-Jun-16 15:54N 50°39' E 001°15'3513.6
2017-Jun-16 13:19N 50°24' E 000°24'414.7
2017-Jun-16 13:01N 50°23' E 000°18'714.8
2017-Jun-16 12:31N 50°21' E 000°07'714.6
2017-Jun-16 12:01N 50°20' W 000°05'  

Dump ship's entire track history